createdAt,value
2023-02-04T00:00:20.780Z,3.24
2023-02-04T00:02:48.026Z,3.23
2023-02-04T00:05:17.381Z,3.26
2023-02-04T00:07:44.503Z,3.31
2023-02-04T00:10:11.587Z,3.31
2023-02-04T00:12:38.629Z,3.32
2023-02-04T00:15:06.321Z,3.32
2023-02-04T00:17:33.402Z,3.34
2023-02-04T00:20:00.422Z,3.33
2023-02-04T00:22:29.212Z,3.27
2023-02-04T00:24:56.920Z,3.28
2023-02-04T00:27:24.025Z,3.33
2023-02-04T00:29:51.202Z,3.34
2023-02-04T00:32:18.420Z,3.36
2023-02-04T00:34:45.590Z,3.30
2023-02-04T00:37:12.665Z,3.32
2023-02-04T00:39:39.773Z,3.32
2023-02-04T00:42:07.288Z,3.25
2023-02-04T00:44:36.763Z,3.23
2023-02-04T00:47:04.842Z,3.30
2023-02-04T00:49:33.545Z,3.33
2023-02-04T00:52:00.656Z,3.33
2023-02-04T00:54:28.431Z,3.35
2023-02-04T00:56:55.399Z,3.37
2023-02-04T00:59:22.648Z,3.32
2023-02-04T01:01:49.677Z,3.36
2023-02-04T01:04:16.720Z,3.39
2023-02-04T01:06:44.401Z,3.41
2023-02-04T01:09:12.078Z,3.38
2023-02-04T01:11:39.372Z,3.36
2023-02-04T01:14:06.709Z,3.31
2023-02-04T01:16:33.853Z,3.28
2023-02-04T01:19:00.963Z,3.24
2023-02-04T01:21:28.072Z,3.16
2023-02-04T01:23:55.123Z,3.23
2023-02-04T01:26:22.622Z,3.27
2023-02-04T01:28:49.931Z,3.26
2023-02-04T01:31:17.554Z,3.28
2023-02-04T01:33:44.814Z,3.17
2023-02-04T01:36:12.220Z,3.18
2023-02-04T01:38:39.352Z,3.19
2023-02-04T01:41:07.096Z,3.28
2023-02-04T01:43:34.444Z,3.07
2023-02-04T01:46:02.895Z,3.09
2023-02-04T01:48:30.800Z,3.11
2023-02-04T01:51:05.171Z,3.12
2023-02-04T01:53:33.651Z,3.15
2023-02-04T01:56:01.054Z,3.20
2023-02-04T01:58:32.299Z,3.21
2023-02-04T02:00:59.465Z,3.21
2023-02-04T02:03:26.531Z,3.21
2023-02-04T02:05:56.004Z,3.14
2023-02-04T02:08:26.295Z,3.15
2023-02-04T02:10:53.503Z,3.19
2023-02-04T02:13:20.792Z,3.15
2023-02-04T02:15:48.433Z,3.13
2023-02-04T02:18:16.188Z,3.04
2023-02-04T02:20:45.391Z,3.10
2023-02-04T02:23:27.058Z,3.11
2023-02-04T02:25:54.163Z,3.05
2023-02-04T02:28:23.409Z,3.07
2023-02-04T02:30:51.426Z,3.11
2023-02-04T02:33:20.692Z,3.13
2023-02-04T02:35:48.876Z,3.22
2023-02-04T02:38:18.171Z,3.21
2023-02-04T02:40:46.009Z,3.17
2023-02-04T02:43:17.464Z,3.20
2023-02-04T02:45:45.445Z,3.18
2023-02-04T02:48:12.699Z,3.19
2023-02-04T02:50:40.706Z,3.20
2023-02-04T02:53:13.544Z,3.23
2023-02-04T02:55:42.990Z,3.25
2023-02-04T02:58:35.078Z,3.09
2023-02-04T03:01:06.038Z,3.12
2023-02-04T03:03:40.058Z,3.10
2023-02-04T03:06:16.411Z,3.13
2023-02-04T03:08:45.128Z,3.13
2023-02-04T03:11:12.323Z,3.22
2023-02-04T03:13:40.085Z,3.19
2023-02-04T03:16:08.480Z,3.07
2023-02-04T03:18:36.973Z,3.01
2023-02-04T03:21:05.904Z,3.01
2023-02-04T03:23:36.968Z,3.04
2023-02-04T03:26:05.925Z,3.02
2023-02-04T03:28:33.335Z,3.02
2023-02-04T03:31:00.685Z,2.90
2023-02-04T03:33:46.374Z,3.02
2023-02-04T03:36:13.439Z,3.09
2023-02-04T03:38:41.420Z,3.10
2023-02-04T03:41:08.736Z,3.05
2023-02-04T03:43:35.943Z,3.08
2023-02-04T03:46:03.001Z,3.14
2023-02-04T03:48:30.208Z,3.18
2023-02-04T03:50:57.141Z,3.22
2023-02-04T03:53:24.666Z,3.26
2023-02-04T03:55:51.707Z,3.22
2023-02-04T03:58:18.725Z,3.15
2023-02-04T04:00:45.680Z,3.16
2023-02-04T04:03:12.683Z,3.19
2023-02-04T04:05:39.713Z,3.22
2023-02-04T04:08:06.766Z,3.17
2023-02-04T04:10:34.273Z,3.18
2023-02-04T04:13:01.413Z,3.09
2023-02-04T04:15:28.508Z,3.11
2023-02-04T04:17:55.487Z,3.10
2023-02-04T04:20:25.592Z,3.16
2023-02-04T04:22:52.788Z,3.14
2023-02-04T04:25:19.861Z,3.13
2023-02-04T04:27:47.224Z,3.10
2023-02-04T04:30:14.266Z,3.12
2023-02-04T04:32:41.420Z,3.12
2023-02-04T04:35:08.688Z,3.20
2023-02-04T04:37:35.714Z,3.19
2023-02-04T04:40:02.945Z,3.14
2023-02-04T04:42:30.776Z,3.05
2023-02-04T04:44:57.909Z,3.06
2023-02-04T04:47:24.980Z,3.06
2023-02-04T04:49:51.987Z,3.04
2023-02-04T04:52:19.059Z,3.00
2023-02-04T04:54:46.149Z,2.97
2023-02-04T04:57:13.160Z,2.98
2023-02-04T04:59:40.204Z,3.01
2023-02-04T05:02:07.227Z,3.00
2023-02-04T05:04:34.248Z,3.08
2023-02-04T05:07:01.208Z,3.04
2023-02-04T05:09:28.331Z,3.06
2023-02-04T05:11:55.419Z,3.08
2023-02-04T05:14:22.419Z,3.19
2023-02-04T05:16:49.420Z,3.16
2023-02-04T05:19:16.488Z,3.16
2023-02-04T05:21:43.423Z,3.15
2023-02-04T05:24:10.483Z,3.16
2023-02-04T05:26:37.455Z,3.17
2023-02-04T05:29:04.703Z,3.16
2023-02-04T05:31:31.917Z,3.22
2023-02-04T05:33:59.022Z,3.21
2023-02-04T05:36:26.118Z,3.26
2023-02-04T05:38:53.272Z,3.33
2023-02-04T05:41:20.282Z,3.29
2023-02-04T05:43:47.375Z,3.31
2023-02-04T05:46:14.443Z,3.24
2023-02-04T05:48:41.563Z,3.28
2023-02-04T05:51:08.675Z,3.36
2023-02-04T05:53:35.733Z,3.39
2023-02-04T05:56:03.050Z,3.21
2023-02-04T05:58:36.298Z,3.06
2023-02-04T06:01:04.359Z,3.10
2023-02-04T06:03:32.881Z,3.13
2023-02-04T06:06:00.134Z,3.20
2023-02-04T06:08:27.201Z,3.33
2023-02-04T06:10:54.219Z,3.32
2023-02-04T06:13:21.412Z,3.32
2023-02-04T06:15:48.365Z,3.37
2023-02-04T06:18:15.414Z,3.37
2023-02-04T06:20:42.499Z,3.40
2023-02-04T06:23:09.680Z,3.44
2023-02-04T06:25:36.761Z,3.52
2023-02-04T06:28:04.059Z,3.40
2023-02-04T06:30:31.827Z,3.40
2023-02-04T06:32:59.147Z,3.54
2023-02-04T06:35:26.309Z,3.54
2023-02-04T06:37:53.317Z,3.65
2023-02-04T06:40:20.315Z,3.66
2023-02-04T06:42:47.364Z,3.72
2023-02-04T06:45:14.409Z,3.76
2023-02-04T06:47:41.522Z,3.78
2023-02-04T06:50:08.938Z,3.84
2023-02-04T06:52:36.176Z,3.89
2023-02-04T06:55:03.208Z,3.91
2023-02-04T06:57:30.833Z,4.06
2023-02-04T06:59:57.790Z,4.13
2023-02-04T07:02:24.812Z,4.10
2023-02-04T07:04:51.895Z,4.05
2023-02-04T07:07:18.986Z,4.05
2023-02-04T07:09:46.030Z,4.17
2023-02-04T07:12:14.371Z,4.17
2023-02-04T07:14:43.546Z,4.25
2023-02-04T07:17:10.520Z,4.33
2023-02-04T07:19:37.708Z,4.34
2023-02-04T07:22:05.284Z,4.36
2023-02-04T07:24:32.726Z,4.37
2023-02-04T07:27:02.258Z,4.36
2023-02-04T07:29:29.738Z,4.33
2023-02-04T07:31:56.960Z,4.26
2023-02-04T07:34:24.119Z,4.34
2023-02-04T07:36:51.182Z,4.42
2023-02-04T07:39:18.266Z,4.52
2023-02-04T07:41:45.267Z,4.61
2023-02-04T07:44:14.397Z,4.57
2023-02-04T07:46:41.423Z,4.56
2023-02-04T07:49:08.454Z,4.67
2023-02-04T07:51:35.631Z,4.60
2023-02-04T07:54:02.673Z,4.61
2023-02-04T07:56:29.814Z,4.61
2023-02-04T07:58:57.012Z,4.64
2023-02-04T08:01:24.063Z,4.74
2023-02-04T08:03:51.064Z,4.79
2023-02-04T08:06:18.151Z,4.93
2023-02-04T08:08:45.162Z,5.00
2023-02-04T08:11:12.211Z,5.07
2023-02-04T08:13:39.175Z,5.12
2023-02-04T08:16:06.442Z,5.28
2023-02-04T08:18:33.477Z,5.40
2023-02-04T08:21:01.696Z,5.49
2023-02-04T08:23:28.795Z,5.48
2023-02-04T08:25:55.810Z,5.52
2023-02-04T08:28:22.812Z,5.54
2023-02-04T08:30:49.881Z,5.62
2023-02-04T08:33:16.965Z,5.63
2023-02-04T08:35:43.942Z,5.65
2023-02-04T08:38:10.971Z,5.64
2023-02-04T08:40:38.132Z,5.70
2023-02-04T08:43:05.079Z,5.52
2023-02-04T08:45:32.154Z,5.49
2023-02-04T08:47:59.247Z,5.39
2023-02-04T08:50:26.925Z,5.32
2023-02-04T08:52:53.950Z,5.25
2023-02-04T08:55:20.917Z,5.18
2023-02-04T08:57:48.122Z,4.97
2023-02-04T09:00:15.894Z,4.97
2023-02-04T09:02:42.948Z,5.04
2023-02-04T09:05:10.035Z,4.91
2023-02-04T09:07:37.235Z,4.93
2023-02-04T09:10:04.752Z,5.01
2023-02-04T09:12:31.849Z,5.09
2023-02-04T09:14:58.935Z,5.11
2023-02-04T09:17:26.579Z,5.13
2023-02-04T09:19:53.579Z,5.14
2023-02-04T09:22:20.603Z,5.17
2023-02-04T09:24:48.224Z,5.28
2023-02-04T09:27:15.380Z,5.41
2023-02-04T09:29:42.559Z,5.42
2023-02-04T09:32:09.679Z,5.42
2023-02-04T09:34:36.759Z,5.46
2023-02-04T09:37:03.754Z,5.51
2023-02-04T09:39:31.044Z,5.53
2023-02-04T09:41:59.384Z,5.47
2023-02-04T09:44:29.073Z,5.33
2023-02-04T09:46:58.675Z,5.41
2023-02-04T09:49:27.919Z,5.46
2023-02-04T09:51:55.847Z,5.46
2023-02-04T09:54:23.914Z,5.34
2023-02-04T09:56:52.228Z,5.26
2023-02-04T09:59:22.371Z,5.20
2023-02-04T10:02:01.995Z,5.19
2023-02-04T10:04:29.432Z,5.15
2023-02-04T10:07:00.583Z,5.19
2023-02-04T10:09:27.665Z,5.19
2023-02-04T10:11:55.015Z,5.15
2023-02-04T10:14:23.797Z,5.13
2023-02-04T10:16:58.534Z,5.22
2023-02-04T10:19:28.467Z,5.19
2023-02-04T10:21:56.339Z,5.27
2023-02-04T10:24:30.400Z,5.38
2023-02-04T10:27:12.307Z,5.52
2023-02-04T10:29:43.937Z,5.73
2023-02-04T10:32:32.253Z,5.72
2023-02-04T10:35:01.622Z,5.72
2023-02-04T10:37:32.442Z,5.73
2023-02-04T10:39:59.512Z,5.80
2023-02-04T10:42:29.262Z,5.67
2023-02-04T10:44:56.615Z,5.69
2023-02-04T10:47:26.453Z,5.65
2023-02-04T10:50:03.143Z,5.63
2023-02-04T10:52:37.619Z,5.61
2023-02-04T10:55:07.485Z,5.51
2023-02-04T10:57:39.660Z,5.49
2023-02-04T11:00:16.298Z,5.43
2023-02-04T11:02:54.643Z,5.28
2023-02-04T11:05:24.167Z,5.32
2023-02-04T11:07:51.956Z,5.18
2023-02-04T11:10:22.193Z,5.07
2023-02-04T11:12:55.367Z,4.96
2023-02-04T11:15:41.107Z,4.91
2023-02-04T11:18:28.821Z,4.95
2023-02-04T11:20:58.617Z,4.84
2023-02-04T11:23:30.267Z,4.86
2023-02-04T11:26:04.984Z,4.70
2023-02-04T11:28:45.210Z,4.53
2023-02-04T11:31:26.997Z,4.49
2023-02-04T11:34:18.653Z,4.36
2023-02-04T11:37:12.280Z,4.45
2023-02-04T11:39:50.990Z,4.55
2023-02-04T11:42:40.823Z,4.61
2023-02-04T11:45:20.444Z,4.54
2023-02-04T11:47:47.827Z,4.45
2023-02-04T11:50:25.222Z,4.53
2023-02-04T11:52:54.915Z,4.52
2023-02-04T11:55:22.191Z,4.47
2023-02-04T11:57:53.429Z,4.49
2023-02-04T12:00:25.763Z,4.62
2023-02-04T12:03:10.823Z,4.69
2023-02-04T12:05:43.750Z,4.70
2023-02-04T12:08:25.169Z,4.62
2023-02-04T12:11:11.821Z,4.57
2023-02-04T12:13:49.987Z,4.55
2023-02-04T12:16:17.180Z,4.51
2023-02-04T12:18:44.252Z,4.50
2023-02-04T12:21:11.601Z,4.38
2023-02-04T12:23:38.833Z,4.33
2023-02-04T12:26:07.846Z,4.16
2023-02-04T12:28:35.754Z,4.07
2023-02-04T12:31:02.945Z,3.95
2023-02-04T12:33:30.486Z,3.86
2023-02-04T12:35:57.799Z,3.80
2023-02-04T12:38:25.055Z,3.79
2023-02-04T12:40:52.053Z,3.87
2023-02-04T12:43:19.078Z,3.91
2023-02-04T12:45:48.003Z,3.88
2023-02-04T12:48:15.196Z,3.85
2023-02-04T12:50:42.284Z,3.86
2023-02-04T12:53:09.342Z,3.89
2023-02-04T12:55:36.723Z,3.91
2023-02-04T12:58:04.178Z,3.85
2023-02-04T13:00:31.710Z,3.74
2023-02-04T13:03:01.891Z,3.69
2023-02-04T13:05:29.125Z,3.69
2023-02-04T13:07:56.197Z,3.74
2023-02-04T13:10:24.186Z,3.60
2023-02-04T13:12:52.049Z,3.52
2023-02-04T13:15:19.229Z,3.59
2023-02-04T13:17:46.330Z,3.53
2023-02-04T13:20:13.423Z,3.53
2023-02-04T13:22:40.629Z,3.52
2023-02-04T13:25:07.743Z,3.46
2023-02-04T13:28:03.417Z,3.41
2023-02-04T13:30:30.637Z,3.33
2023-02-04T13:32:57.708Z,3.32
2023-02-04T13:35:25.595Z,3.28
2023-02-04T13:37:52.636Z,3.19
2023-02-04T13:40:19.719Z,3.15
2023-02-04T13:42:46.743Z,3.11
2023-02-04T13:45:15.756Z,3.03
2023-02-04T13:47:42.719Z,3.04
2023-02-04T13:50:10.196Z,2.92
2023-02-04T13:52:37.244Z,3.07
2023-02-04T13:55:04.526Z,3.08
2023-02-04T13:57:33.091Z,3.09
2023-02-04T14:00:00.125Z,2.98
2023-02-04T14:02:27.270Z,2.95
2023-02-04T14:04:54.429Z,2.95
2023-02-04T14:07:21.482Z,2.97
2023-02-04T14:09:48.805Z,3.04
2023-02-04T14:12:15.960Z,3.02
2023-02-04T14:14:42.962Z,3.05
2023-02-04T14:17:10.011Z,3.11
2023-02-04T14:19:36.968Z,3.13
2023-02-04T14:22:04.223Z,3.19
2023-02-04T14:24:31.367Z,3.29
2023-02-04T14:27:01.492Z,3.24
2023-02-04T14:29:28.520Z,3.28
2023-02-04T14:31:55.600Z,3.35
2023-02-04T14:34:22.658Z,3.36
2023-02-04T14:36:49.715Z,3.43
2023-02-04T14:39:16.784Z,3.44
2023-02-04T14:41:44.153Z,3.42
2023-02-04T14:44:11.278Z,3.47
2023-02-04T14:46:44.837Z,3.53
2023-02-04T14:49:21.102Z,3.50
2023-02-04T14:51:49.820Z,3.47
2023-02-04T14:54:17.618Z,3.48
2023-02-04T14:56:53.369Z,3.48
2023-02-04T14:59:24.903Z,3.57
2023-02-04T15:01:53.707Z,3.50
2023-02-04T15:04:23.221Z,3.59
2023-02-04T15:06:54.131Z,3.56
2023-02-04T15:09:21.105Z,3.59
2023-02-04T15:11:48.104Z,3.56
2023-02-04T15:14:15.105Z,3.61
2023-02-04T15:16:43.512Z,3.57
2023-02-04T15:19:11.046Z,3.49
2023-02-04T15:21:38.030Z,3.44
2023-02-04T15:24:05.277Z,3.46
2023-02-04T15:26:32.540Z,3.40
2023-02-04T15:28:59.587Z,3.47
2023-02-04T15:31:27.480Z,3.42
2023-02-04T15:33:54.608Z,3.35
2023-02-04T15:36:21.671Z,3.31
2023-02-04T15:38:48.978Z,3.23
2023-02-04T15:41:16.003Z,3.18
2023-02-04T15:43:43.008Z,3.15
2023-02-04T15:46:10.112Z,3.15
2023-02-04T15:48:37.195Z,3.06
2023-02-04T15:51:04.337Z,3.00
2023-02-04T15:53:31.422Z,2.98
2023-02-04T15:55:58.571Z,2.97
2023-02-04T15:58:25.754Z,2.99
2023-02-04T16:00:52.814Z,2.96
2023-02-04T16:03:19.828Z,2.98
2023-02-04T16:05:46.942Z,3.02
2023-02-04T16:08:13.962Z,2.98
2023-02-04T16:10:41.152Z,2.96
2023-02-04T16:13:08.208Z,2.96
2023-02-04T16:15:35.588Z,3.02
2023-02-04T16:18:02.926Z,3.02
2023-02-04T16:20:29.914Z,3.06
2023-02-04T16:22:56.935Z,3.06
2023-02-04T16:25:24.525Z,3.03
2023-02-04T16:27:51.500Z,3.05
2023-02-04T16:30:18.697Z,3.08
2023-02-04T16:32:45.706Z,3.11
2023-02-04T16:35:14.464Z,3.14
2023-02-04T16:37:41.603Z,3.12
2023-02-04T16:40:11.168Z,3.17
2023-02-04T16:42:39.617Z,3.17
2023-02-04T16:45:07.234Z,3.19
2023-02-04T16:47:34.434Z,3.21
2023-02-04T16:50:01.606Z,3.20
2023-02-04T16:52:31.745Z,3.24
2023-02-04T16:54:59.819Z,3.29
2023-02-04T16:57:26.863Z,3.26
2023-02-04T16:59:53.811Z,3.23
2023-02-04T17:02:20.909Z,3.26
2023-02-04T17:04:47.899Z,3.24
2023-02-04T17:07:14.946Z,3.20
2023-02-04T17:09:42.453Z,3.17
2023-02-04T17:12:09.471Z,3.16
2023-02-04T17:14:36.539Z,3.18
2023-02-04T17:17:03.642Z,3.22
2023-02-04T17:19:30.733Z,3.25
2023-02-04T17:21:57.807Z,3.26
2023-02-04T17:24:24.815Z,3.21
2023-02-04T17:26:51.884Z,3.22
2023-02-04T17:29:21.946Z,3.19
2023-02-04T17:31:49.151Z,3.17
2023-02-04T17:34:16.284Z,3.18
2023-02-04T17:36:43.374Z,3.19
2023-02-04T17:39:10.517Z,3.21
2023-02-04T17:41:37.516Z,3.19
2023-02-04T17:44:04.838Z,3.24
2023-02-04T17:46:32.136Z,3.27
2023-02-04T17:48:59.559Z,3.33
2023-02-04T17:51:26.909Z,3.25
2023-02-04T17:53:53.903Z,3.30
2023-02-04T17:56:21.598Z,3.28
2023-02-04T17:58:49.610Z,3.29
2023-02-04T18:01:18.996Z,3.36
2023-02-04T18:03:46.610Z,3.40
2023-02-04T18:06:22.554Z,3.38
2023-02-04T18:08:50.990Z,3.30
2023-02-04T18:11:27.030Z,3.18
2023-02-04T18:13:59.890Z,3.15
2023-02-04T18:16:30.585Z,3.10
2023-02-04T18:19:10.056Z,3.13
2023-02-04T18:21:37.209Z,3.16
2023-02-04T18:24:20.279Z,3.19
2023-02-04T18:26:52.605Z,3.21
2023-02-04T18:29:29.015Z,3.21
2023-02-04T18:31:59.996Z,3.28
2023-02-04T18:34:38.511Z,3.19
2023-02-04T18:37:27.016Z,3.14
2023-02-04T18:40:20.232Z,3.06
2023-02-04T18:42:48.087Z,3.08
2023-02-04T18:45:30.281Z,3.09
2023-02-04T18:48:00.165Z,3.13
2023-02-04T18:50:32.872Z,3.16
2023-02-04T18:53:15.265Z,3.18
2023-02-04T18:55:50.810Z,3.21
2023-02-04T18:58:23.854Z,3.22
2023-02-04T19:00:56.703Z,3.27
2023-02-04T19:03:42.138Z,3.22
2023-02-04T19:06:29.421Z,3.21
2023-02-04T19:09:15.610Z,3.24
2023-02-04T19:11:55.681Z,3.20
2023-02-04T19:14:39.254Z,3.15
2023-02-04T19:17:34.198Z,3.15
2023-02-04T19:20:06.176Z,3.13
2023-02-04T19:22:50.659Z,3.09
2023-02-04T19:25:27.525Z,3.08
2023-02-04T19:27:57.701Z,3.08
2023-02-04T19:30:28.021Z,3.18
2023-02-04T19:32:58.440Z,3.12
2023-02-04T19:35:29.357Z,3.12
2023-02-04T19:38:02.506Z,3.08
2023-02-04T19:40:33.649Z,3.06
2023-02-04T19:43:27.053Z,3.07
2023-02-04T19:45:56.785Z,3.06
2023-02-04T19:48:34.769Z,3.05
2023-02-04T19:51:24.183Z,3.08
2023-02-04T19:53:56.597Z,3.04
2023-02-04T19:56:37.027Z,3.02
2023-02-04T19:59:42.507Z,3.04
2023-02-04T20:02:36.373Z,3.00
2023-02-04T20:05:16.043Z,3.03
2023-02-04T20:07:43.133Z,2.99
2023-02-04T20:10:29.432Z,2.98
2023-02-04T20:13:00.596Z,3.03
2023-02-04T20:15:27.648Z,2.98
2023-02-04T20:17:55.085Z,2.98
2023-02-04T20:20:30.028Z,3.02
2023-02-04T20:22:58.554Z,3.00
2023-02-04T20:25:35.352Z,2.97
2023-02-04T20:28:30.257Z,3.00
2023-02-04T20:31:00.328Z,2.96
2023-02-04T20:33:35.695Z,2.95
2023-02-04T20:36:30.513Z,3.01
2023-02-04T20:39:09.436Z,3.02
2023-02-04T20:41:38.272Z,3.00
2023-02-04T20:44:27.850Z,2.97
2023-02-04T20:47:19.344Z,3.03
2023-02-04T20:50:38.459Z,3.06
2023-02-04T20:53:19.351Z,3.05
2023-02-04T20:56:11.147Z,3.04
2023-02-04T20:58:41.491Z,3.09
2023-02-04T21:01:34.077Z,3.06
2023-02-04T21:04:25.977Z,3.06
2023-02-04T21:06:55.159Z,3.02
2023-02-04T21:09:31.541Z,2.96
2023-02-04T21:11:59.671Z,2.96
2023-02-04T21:14:27.960Z,2.96
2023-02-04T21:16:55.780Z,2.95
2023-02-04T21:19:24.876Z,3.02
2023-02-04T21:21:52.530Z,2.96
2023-02-04T21:24:19.598Z,2.97
2023-02-04T21:26:46.668Z,2.99
2023-02-04T21:29:13.943Z,2.97
2023-02-04T21:31:41.636Z,2.98
2023-02-04T21:34:09.114Z,2.97
2023-02-04T21:36:36.571Z,2.94
2023-02-04T21:39:03.739Z,2.91
2023-02-04T21:41:30.900Z,2.91
2023-02-04T21:43:57.990Z,2.96
2023-02-04T21:46:25.087Z,2.98
2023-02-04T21:48:52.186Z,3.03
2023-02-04T21:51:19.298Z,3.02
2023-02-04T21:53:46.602Z,3.01
2023-02-04T21:56:14.536Z,2.96
2023-02-04T21:58:41.665Z,2.95
2023-02-04T22:01:10.527Z,2.97
2023-02-04T22:03:37.616Z,3.00
2023-02-04T22:06:05.064Z,2.99
2023-02-04T22:08:32.147Z,2.93
2023-02-04T22:10:59.296Z,2.89
2023-02-04T22:13:26.752Z,2.93
2023-02-04T22:15:53.897Z,2.87
2023-02-04T22:18:20.983Z,2.92
2023-02-04T22:20:48.429Z,2.86
2023-02-04T22:23:16.676Z,2.83
2023-02-04T22:25:43.805Z,2.87
2023-02-04T22:28:10.831Z,2.83
2023-02-04T22:30:38.275Z,2.83
2023-02-04T22:33:05.376Z,2.81
2023-02-04T22:35:35.567Z,2.83
2023-02-04T22:38:03.518Z,2.86
2023-02-04T22:40:30.740Z,2.85
2023-02-04T22:42:57.793Z,2.82
2023-02-04T22:45:25.062Z,2.75
2023-02-04T22:47:52.127Z,2.77
2023-02-04T22:50:19.208Z,2.75
2023-02-04T22:52:46.305Z,2.79
2023-02-04T22:55:13.410Z,2.80
2023-02-04T22:57:40.450Z,2.78
2023-02-04T23:00:09.279Z,2.85
2023-02-04T23:02:36.339Z,2.84
2023-02-04T23:05:04.154Z,2.75
2023-02-04T23:07:31.682Z,2.73
2023-02-04T23:09:58.977Z,2.86
2023-02-04T23:12:26.151Z,2.77
2023-02-04T23:14:53.182Z,2.77
2023-02-04T23:17:20.164Z,2.71
2023-02-04T23:19:47.272Z,2.68
2023-02-04T23:22:14.798Z,2.71
2023-02-04T23:24:42.865Z,2.70
2023-02-04T23:27:11.602Z,2.71
2023-02-04T23:29:39.806Z,2.74
2023-02-04T23:32:07.836Z,2.74
2023-02-04T23:34:35.356Z,2.69
2023-02-04T23:37:02.559Z,2.64
2023-02-04T23:39:29.813Z,2.59
2023-02-04T23:41:57.031Z,2.61
2023-02-04T23:44:24.217Z,2.60
2023-02-04T23:46:51.321Z,2.56
2023-02-04T23:49:18.369Z,2.56
2023-02-04T23:51:46.209Z,2.51
2023-02-04T23:54:13.496Z,2.59
2023-02-04T23:56:40.596Z,2.58
2023-02-04T23:59:08.434Z,2.59
